createdAt,value
2018-01-02T00:00:40.524Z,99.90
2018-01-02T00:03:09.536Z,99.90
2018-01-02T00:05:37.762Z,99.90
2018-01-02T00:08:06.008Z,99.90
2018-01-02T00:10:34.244Z,99.90
2018-01-02T00:13:03.257Z,99.90
2018-01-02T00:15:31.491Z,99.90
2018-01-02T00:17:59.740Z,99.90
2018-01-02T00:20:27.969Z,99.90
2018-01-02T00:22:56.223Z,99.90
2018-01-02T00:25:24.444Z,99.90
2018-01-02T00:27:52.696Z,99.90
2018-01-02T00:30:20.934Z,99.90
2018-01-02T00:32:49.181Z,99.90
2018-01-02T00:35:17.405Z,99.90
2018-01-02T00:37:46.420Z,99.90
2018-01-02T00:40:14.656Z,99.90
2018-01-02T00:42:42.895Z,99.90
2018-01-02T00:45:12.719Z,99.90
2018-01-02T00:47:40.963Z,99.90
2018-01-02T00:50:09.211Z,99.90
2018-01-02T00:52:38.208Z,99.90
2018-01-02T00:55:07.212Z,99.90
2018-01-02T00:57:36.211Z,99.90
2018-01-02T01:00:04.467Z,99.90
2018-01-02T01:02:33.464Z,99.90
2018-01-02T01:05:02.475Z,99.90
2018-01-02T01:07:30.709Z,99.90
2018-01-02T01:09:58.958Z,99.90
2018-01-02T01:12:27.195Z,99.90
2018-01-02T01:14:56.205Z,99.90
2018-01-02T01:17:24.437Z,99.90
2018-01-02T01:19:52.703Z,99.90
2018-01-02T01:22:20.931Z,99.90
2018-01-02T01:24:49.178Z,99.90
2018-01-02T01:27:17.414Z,99.90
2018-01-02T01:29:45.647Z,99.90
2018-01-02T01:32:14.637Z,99.90
2018-01-02T01:34:43.650Z,99.90
2018-01-02T01:37:11.885Z,99.90
2018-01-02T01:39:40.128Z,99.90
2018-01-02T01:42:08.364Z,99.90
2018-01-02T01:44:37.429Z,99.90
2018-01-02T01:47:05.628Z,99.90
2018-01-02T01:49:34.640Z,99.90
2018-01-02T01:52:02.864Z,99.90
2018-01-02T01:54:31.118Z,99.90
2018-01-02T01:56:59.341Z,99.90
2018-01-02T01:59:28.361Z,99.90
2018-01-02T02:01:56.598Z,99.90
2018-01-02T02:04:24.832Z,99.90
2018-01-02T02:06:53.059Z,99.90
2018-01-02T02:09:22.143Z,99.90
2018-01-02T02:11:50.336Z,99.90
2018-01-02T02:14:19.357Z,99.90
2018-01-02T02:16:47.592Z,99.90
2018-01-02T02:19:15.836Z,99.90
2018-01-02T02:21:44.069Z,99.90
2018-01-02T02:24:13.310Z,99.90
2018-01-02T02:26:41.551Z,99.90
2018-01-02T02:29:09.799Z,99.90
2018-01-02T02:31:38.035Z,99.90
2018-01-02T02:34:06.344Z,99.90
2018-01-02T02:36:34.540Z,99.90
2018-01-02T02:39:03.555Z,99.90
2018-01-02T02:41:31.787Z,99.90
2018-01-02T02:44:00.032Z,99.90
2018-01-02T02:46:28.264Z,99.90
2018-01-02T02:48:57.280Z,99.90
2018-01-02T02:51:25.499Z,99.90
2018-01-02T02:53:53.743Z,99.90
2018-01-02T02:56:21.968Z,99.90
2018-01-02T02:58:50.996Z,99.90
2018-01-02T03:01:19.220Z,99.90
2018-01-02T03:03:47.476Z,99.90
2018-01-02T03:06:15.707Z,99.90
2018-01-02T03:08:44.721Z,99.90
2018-01-02T03:11:12.944Z,99.90
2018-01-02T03:13:41.201Z,99.90
2018-01-02T03:16:09.541Z,99.90
2018-01-02T03:18:37.754Z,99.90
2018-01-02T03:21:05.976Z,99.90
2018-01-02T03:23:34.994Z,99.90
2018-01-02T03:26:03.221Z,99.90
2018-01-02T03:28:31.495Z,99.90
2018-01-02T03:30:59.721Z,99.90
2018-01-02T03:33:27.969Z,99.90
2018-01-02T03:35:56.969Z,99.90
2018-01-02T03:38:25.983Z,99.90
2018-01-02T03:40:54.206Z,99.90
2018-01-02T03:43:22.476Z,99.90
2018-01-02T03:45:50.708Z,99.90
2018-01-02T03:48:18.946Z,99.90
2018-01-02T03:50:47.193Z,99.90
2018-01-02T03:53:15.417Z,99.90
2018-01-02T03:55:44.428Z,99.90
2018-01-02T03:58:12.651Z,99.90
2018-01-02T04:00:40.894Z,99.90
2018-01-02T04:03:10.845Z,99.90
2018-01-02T04:05:39.084Z,99.90
2018-01-02T04:08:07.329Z,99.90
2018-01-02T04:10:36.336Z,99.90
2018-01-02T04:13:04.575Z,99.90
2018-01-02T04:15:32.820Z,99.90
2018-01-02T04:18:01.052Z,99.90
2018-01-02T04:20:30.065Z,99.90
2018-01-02T04:22:58.296Z,99.90
2018-01-02T04:25:26.550Z,99.90
2018-01-02T04:27:54.779Z,99.90
2018-01-02T04:30:23.796Z,99.90
2018-01-02T04:32:52.042Z,99.90
2018-01-02T04:35:21.040Z,99.90
2018-01-02T04:37:49.701Z,99.90
2018-01-02T04:40:17.941Z,99.90
2018-01-02T04:42:46.169Z,99.90
2018-01-02T04:45:15.191Z,99.90
2018-01-02T04:47:43.420Z,99.90
2018-01-02T04:50:11.671Z,99.90
2018-01-02T04:52:39.909Z,99.90
2018-01-02T04:55:08.149Z,99.90
2018-01-02T04:57:36.386Z,99.90
2018-01-02T05:00:04.633Z,99.90
2018-01-02T05:02:33.078Z,99.90
2018-01-02T05:05:01.330Z,99.90
2018-01-02T05:07:29.575Z,99.90
2018-01-02T05:09:57.816Z,99.90
2018-01-02T05:12:26.803Z,99.90
2018-01-02T05:14:55.065Z,99.90
2018-01-02T05:17:23.279Z,99.90
2018-01-02T05:19:51.698Z,99.90
2018-01-02T05:22:19.931Z,99.90
2018-01-02T05:24:48.940Z,99.90
2018-01-02T05:27:17.156Z,99.90
2018-01-02T05:29:45.419Z,99.90
2018-01-02T05:32:13.647Z,99.90
2018-01-02T05:34:42.652Z,99.90
2018-01-02T05:37:10.889Z,99.90
2018-01-02T05:39:39.130Z,99.90
2018-01-02T05:42:07.360Z,99.90
2018-01-02T05:44:36.368Z,99.90
2018-01-02T05:47:05.404Z,99.90
2018-01-02T05:49:33.639Z,99.90
2018-01-02T05:52:01.880Z,99.90
2018-01-02T05:54:30.123Z,99.90
2018-01-02T05:56:58.352Z,99.90
2018-01-02T05:59:27.367Z,99.90
2018-01-02T06:01:55.635Z,99.90
2018-01-02T06:04:24.651Z,99.90
2018-01-02T06:06:52.869Z,99.90
2018-01-02T06:09:21.111Z,99.90
2018-01-02T06:11:49.337Z,99.90
2018-01-02T06:14:17.586Z,99.90
2018-01-02T06:16:45.815Z,99.90
2018-01-02T06:19:14.121Z,99.90
2018-01-02T06:21:43.273Z,99.90
2018-01-02T06:24:12.281Z,99.90
2018-01-02T06:26:40.536Z,99.90
2018-01-02T06:29:08.743Z,99.90
2018-01-02T06:31:36.997Z,99.90
2018-01-02T06:34:05.979Z,99.90
2018-01-02T06:36:34.227Z,99.90
2018-01-02T06:39:02.468Z,99.90
2018-01-02T06:41:30.711Z,99.90
2018-01-02T06:43:59.707Z,99.90
2018-01-02T06:46:28.730Z,99.90
2018-01-02T06:48:57.263Z,99.90
2018-01-02T06:51:25.507Z,99.90
2018-01-02T06:53:53.733Z,99.90
2018-01-02T06:56:22.753Z,99.90
2018-01-02T06:58:50.980Z,99.90
2018-01-02T07:01:19.220Z,99.90
2018-01-02T07:03:47.501Z,99.90
2018-01-02T07:06:15.743Z,99.90
2018-01-02T07:08:43.975Z,99.90
2018-01-02T07:11:12.224Z,99.90
2018-01-02T07:13:40.456Z,99.90
2018-01-02T07:16:09.535Z,99.90
2018-01-02T07:18:37.767Z,99.90
2018-01-02T07:21:06.007Z,99.90
2018-01-02T07:23:35.087Z,99.90
2018-01-02T07:26:03.312Z,99.90
2018-01-02T07:28:31.569Z,99.90
2018-01-02T07:31:00.579Z,99.90
2018-01-02T07:33:28.819Z,99.90
2018-01-02T07:35:57.844Z,99.90
2018-01-02T07:38:26.069Z,99.90
2018-01-02T07:40:54.311Z,99.90
2018-01-02T07:43:22.539Z,99.90
2018-01-02T07:45:51.531Z,99.90
2018-01-02T07:48:20.549Z,99.90
2018-01-02T07:50:48.772Z,99.90
2018-01-02T07:53:17.024Z,99.90
2018-01-02T07:55:45.256Z,99.90
2018-01-02T07:58:14.276Z,99.90
2018-01-02T08:00:42.508Z,99.90
2018-01-02T08:03:10.766Z,99.90
2018-01-02T08:05:38.998Z,99.90
2018-01-02T08:08:07.245Z,99.90
2018-01-02T08:10:35.488Z,99.90
2018-01-02T08:13:03.732Z,99.90
2018-01-02T08:15:31.973Z,99.90
2018-01-02T08:18:00.209Z,99.90
2018-01-02T08:20:28.435Z,99.90
2018-01-02T08:22:57.451Z,99.90
2018-01-02T08:25:25.680Z,99.90
2018-01-02T08:27:54.687Z,99.90
2018-01-02T08:30:23.695Z,99.90
2018-01-02T08:32:52.729Z,99.90
2018-01-02T08:35:20.963Z,99.90
2018-01-02T08:37:49.978Z,99.90
2018-01-02T08:40:18.975Z,99.90
2018-01-02T08:42:47.211Z,99.90
2018-01-02T08:45:16.209Z,99.90
2018-01-02T08:47:45.212Z,99.90
2018-01-02T08:50:14.208Z,99.90
2018-01-02T08:52:43.244Z,99.90
2018-01-02T08:55:11.473Z,99.90
2018-01-02T08:57:40.549Z,99.90
2018-01-02T09:00:08.759Z,99.90
2018-01-02T09:02:36.990Z,99.90
2018-01-02T09:05:05.227Z,99.90
2018-01-02T09:07:33.459Z,99.90
2018-01-02T09:10:01.722Z,99.90
2018-01-02T09:12:35.689Z,99.90
2018-01-02T09:15:03.933Z,99.90
2018-01-02T09:17:32.143Z,99.90
2018-01-02T09:20:00.393Z,99.90
2018-01-02T09:22:29.386Z,99.90
2018-01-02T09:24:58.390Z,99.90
2018-01-02T09:27:26.632Z,99.90
2018-01-02T09:29:54.892Z,99.90
2018-01-02T09:32:23.126Z,99.90
2018-01-02T09:34:51.395Z,99.90
2018-01-02T09:37:19.612Z,99.90
2018-01-02T09:39:47.859Z,99.90
2018-01-02T09:42:16.097Z,99.90
2018-01-02T09:44:45.663Z,99.90
2018-01-02T09:47:13.895Z,99.90
2018-01-02T09:49:42.144Z,99.90
2018-01-02T09:52:10.383Z,99.90
2018-01-02T09:54:38.630Z,99.90
2018-01-02T09:57:06.867Z,99.90
2018-01-02T09:59:35.112Z,99.90
2018-01-02T10:02:03.344Z,99.90
2018-01-02T10:04:32.355Z,99.90
2018-01-02T10:07:00.592Z,99.90
2018-01-02T10:09:28.857Z,99.90
2018-01-02T10:11:57.093Z,99.90
2018-01-02T10:14:25.327Z,99.90
2018-01-02T10:16:54.339Z,99.90
2018-01-02T10:19:23.332Z,99.90
2018-01-02T10:21:51.576Z,99.90
2018-01-02T10:24:19.801Z,99.90
2018-01-02T10:26:48.048Z,99.90
2018-01-02T10:29:17.049Z,99.90
2018-01-02T10:31:45.290Z,99.90
2018-01-02T10:34:13.507Z,99.90
2018-01-02T10:36:41.758Z,99.90
2018-01-02T10:39:09.973Z,99.90
2018-01-02T10:41:38.213Z,99.90
2018-01-02T10:44:06.452Z,99.90
2018-01-02T10:46:34.740Z,99.90
2018-01-02T10:49:02.994Z,99.90
2018-01-02T10:51:31.241Z,99.90
2018-01-02T10:53:59.468Z,99.90
2018-01-02T10:56:27.715Z,99.90
2018-01-02T10:58:55.943Z,99.90
2018-01-02T11:01:28.012Z,99.90
2018-01-02T11:03:56.253Z,99.90
2018-01-02T11:06:24.488Z,99.90
2018-01-02T11:08:52.707Z,99.90
2018-01-02T11:11:21.718Z,99.90
2018-01-02T11:13:53.886Z,99.90
2018-01-02T11:16:22.156Z,99.90
2018-01-02T11:18:50.385Z,99.90
2018-01-02T11:21:18.623Z,99.90
2018-01-02T11:23:47.621Z,99.90
2018-01-02T11:26:15.855Z,99.90
2018-01-02T11:28:44.072Z,99.90
2018-01-02T11:31:13.082Z,99.90
2018-01-02T11:33:41.320Z,99.90
2018-01-02T11:36:09.679Z,99.60
2018-01-02T11:38:37.915Z,99.20
2018-01-02T11:41:06.171Z,98.90
2018-01-02T11:43:35.174Z,99.60
2018-01-02T11:46:04.185Z,99.70
2018-01-02T11:48:32.415Z,99.70
2018-01-02T11:51:00.663Z,98.30
2018-01-02T11:53:28.897Z,97.90
2018-01-02T11:55:57.907Z,96.70
2018-01-02T11:58:26.142Z,96.70
2018-01-02T12:00:54.395Z,96.20
2018-01-02T12:03:22.620Z,96.40
2018-01-02T12:05:51.632Z,96.40
2018-01-02T12:08:19.939Z,96.40
2018-01-02T12:10:48.263Z,96.10
2018-01-02T12:13:17.275Z,96.20
2018-01-02T12:15:45.544Z,95.80
2018-01-02T12:18:13.760Z,93.70
2018-01-02T12:20:42.004Z,94.40
2018-01-02T12:23:10.258Z,95.10
2018-01-02T12:25:39.273Z,95.70
2018-01-02T12:28:07.513Z,95.70
2018-01-02T12:30:35.752Z,95.90
2018-01-02T12:33:03.986Z,96.40
2018-01-02T12:35:33.030Z,96.40
2018-01-02T12:38:01.244Z,96.40
2018-01-02T12:40:30.236Z,96.50
2018-01-02T12:42:59.255Z,97.20
2018-01-02T12:45:28.085Z,97.00
2018-01-02T12:47:57.163Z,97.00
2018-01-02T12:50:25.409Z,96.80
2018-01-02T12:52:53.655Z,97.20
2018-01-02T12:55:21.892Z,97.80
2018-01-02T12:57:50.124Z,98.40
2018-01-02T13:00:19.127Z,99.50
2018-01-02T13:02:47.367Z,99.50
2018-01-02T13:05:15.630Z,99.50
2018-01-02T13:07:44.781Z,99.60
2018-01-02T13:10:13.767Z,99.10
2018-01-02T13:12:42.786Z,99.20
2018-01-02T13:15:11.012Z,99.20
2018-01-02T13:17:39.259Z,98.10
2018-01-02T13:20:07.508Z,98.30
2018-01-02T13:22:35.772Z,98.10
2018-01-02T13:25:03.987Z,97.10
2018-01-02T13:27:32.299Z,96.80
2018-01-02T13:30:01.398Z,96.50
2018-01-02T13:32:29.592Z,96.40
2018-01-02T13:34:58.586Z,95.50
2018-01-02T13:37:27.712Z,95.90
2018-01-02T13:39:55.947Z,95.90
2018-01-02T13:42:24.965Z,96.40
2018-01-02T13:44:53.249Z,96.40
2018-01-02T13:47:21.512Z,96.50
2018-01-02T13:49:49.771Z,96.20
2018-01-02T13:52:18.783Z,96.20
2018-01-02T13:54:47.042Z,96.20
2018-01-02T13:57:16.068Z,96.60
2018-01-02T13:59:44.314Z,96.60
2018-01-02T14:02:13.308Z,96.10
2018-01-02T14:04:42.342Z,96.20
2018-01-02T14:07:10.769Z,96.20
2018-01-02T14:09:39.250Z,95.60
2018-01-02T14:12:07.680Z,96.00
2018-01-02T14:14:36.174Z,95.50
2018-01-02T14:17:04.599Z,95.70
2018-01-02T14:19:32.947Z,96.00
2018-01-02T14:22:01.358Z,95.80
2018-01-02T14:24:29.837Z,95.80
2018-01-02T14:26:58.274Z,96.10
2018-01-02T14:29:26.758Z,96.40
2018-01-02T14:32:07.406Z,96.00
2018-01-02T14:34:36.486Z,95.70
2018-01-02T14:37:04.712Z,95.70
2018-01-02T14:39:33.736Z,96.20
2018-01-02T14:42:02.023Z,96.20
2018-01-02T14:44:30.293Z,96.00
2018-01-02T14:46:58.540Z,95.80
2018-01-02T14:49:27.563Z,95.60
2018-01-02T14:51:55.805Z,95.50
2018-01-02T14:54:24.070Z,95.40
2018-01-02T14:56:55.180Z,95.10
2018-01-02T14:59:23.435Z,95.10
2018-01-02T15:01:52.447Z,95.40
2018-01-02T15:04:20.711Z,95.40
2018-01-02T15:06:49.027Z,95.30
2018-01-02T15:09:17.850Z,95.50
2018-01-02T15:11:46.347Z,95.70
2018-01-02T15:14:14.677Z,95.50
2018-01-02T15:16:42.966Z,95.70
2018-01-02T15:19:20.154Z,96.00
2018-01-02T15:21:48.480Z,95.90
2018-01-02T15:24:17.561Z,96.10
2018-01-02T15:26:45.794Z,96.10
2018-01-02T15:29:14.043Z,96.20
2018-01-02T15:31:43.061Z,96.20
2018-01-02T15:34:11.341Z,96.20
2018-01-02T15:36:40.458Z,96.40
2018-01-02T15:39:08.715Z,96.10
2018-01-02T15:41:37.025Z,96.30
2018-01-02T15:44:05.282Z,96.30
2018-01-02T15:46:33.547Z,96.40
2018-01-02T15:49:01.858Z,96.00
2018-01-02T15:51:30.142Z,95.70
2018-01-02T15:53:58.388Z,95.40
2018-01-02T15:56:27.517Z,95.30
2018-01-02T15:58:55.766Z,95.30
2018-01-02T16:01:24.035Z,95.20
2018-01-02T16:03:53.038Z,95.10
2018-01-02T16:06:22.174Z,95.20
2018-01-02T16:08:50.470Z,95.20
2018-01-02T16:11:18.794Z,95.60
2018-01-02T16:13:47.016Z,95.60
2018-01-02T16:16:15.289Z,95.70
2018-01-02T16:18:43.539Z,95.80
2018-01-02T16:21:11.877Z,95.90
2018-01-02T16:23:40.142Z,95.90
2018-01-02T16:26:08.445Z,96.00
2018-01-02T16:28:36.796Z,96.20
2018-01-02T16:31:05.058Z,96.30
2018-01-02T16:33:33.362Z,96.40
2018-01-02T16:36:01.605Z,96.40
2018-01-02T16:38:29.991Z,96.50
2018-01-02T16:40:58.245Z,96.50
2018-01-02T16:43:27.295Z,96.60
2018-01-02T16:45:55.550Z,96.60
2018-01-02T16:48:23.871Z,96.90
2018-01-02T16:50:52.105Z,97.00
2018-01-02T16:53:20.412Z,97.00
2018-01-02T16:55:49.419Z,96.80
2018-01-02T16:58:17.689Z,96.80
2018-01-02T17:00:45.978Z,96.90
2018-01-02T17:03:15.262Z,97.10
2018-01-02T17:05:43.561Z,96.90
2018-01-02T17:08:11.981Z,96.80
2018-01-02T17:10:41.756Z,97.00
2018-01-02T17:13:10.030Z,97.00
2018-01-02T17:15:38.278Z,97.20
2018-01-02T17:18:07.310Z,96.80
2018-01-02T17:20:35.564Z,96.80
2018-01-02T17:23:03.874Z,96.80
2018-01-02T17:25:32.125Z,96.70
2018-01-02T17:28:00.418Z,97.00
2018-01-02T17:30:29.671Z,97.00
2018-01-02T17:32:58.770Z,97.00
2018-01-02T17:35:27.037Z,96.90
2018-01-02T17:37:55.507Z,96.60
2018-01-02T17:40:23.745Z,96.30
2018-01-02T17:42:52.769Z,96.30
2018-01-02T17:45:21.007Z,96.30
2018-01-02T17:47:50.041Z,96.40
2018-01-02T17:50:18.303Z,96.40
2018-01-02T17:52:46.609Z,96.60
2018-01-02T17:55:14.849Z,96.60
2018-01-02T17:57:44.037Z,96.90
2018-01-02T18:00:12.257Z,96.80
2018-01-02T18:02:40.550Z,96.90
2018-01-02T18:05:08.802Z,96.90
2018-01-02T18:07:37.070Z,96.80
2018-01-02T18:10:06.107Z,96.90
2018-01-02T18:12:34.421Z,96.90
2018-01-02T18:15:02.792Z,96.80
2018-01-02T18:17:31.050Z,96.90
2018-01-02T18:19:59.304Z,97.00
2018-01-02T18:22:27.587Z,97.10
2018-01-02T18:24:55.852Z,97.20
2018-01-02T18:27:24.142Z,97.40
2018-01-02T18:29:53.175Z,97.60
2018-01-02T18:32:21.434Z,97.60
2018-01-02T18:34:49.723Z,97.90
2018-01-02T18:37:18.115Z,97.90
2018-01-02T18:39:46.523Z,97.80
2018-01-02T18:42:14.766Z,98.00
2018-01-02T18:44:43.067Z,98.00
2018-01-02T18:47:11.353Z,98.10
2018-01-02T18:49:39.654Z,98.10
2018-01-02T18:52:07.931Z,98.40
2018-01-02T18:54:36.275Z,98.40
2018-01-02T18:57:04.542Z,98.10
2018-01-02T18:59:32.814Z,98.10
2018-01-02T19:02:01.085Z,98.20
2018-01-02T19:04:29.419Z,98.20
2018-01-02T19:06:57.679Z,98.10
2018-01-02T19:09:25.962Z,98.10
2018-01-02T19:11:54.230Z,98.20
2018-01-02T19:14:22.550Z,98.10
2018-01-02T19:16:50.829Z,98.10
2018-01-02T19:19:19.132Z,98.10
2018-01-02T19:21:48.201Z,98.10
2018-01-02T19:24:16.439Z,98.10
2018-01-02T19:26:44.702Z,98.10
2018-01-02T19:29:12.984Z,98.00
2018-01-02T19:31:41.228Z,98.10
2018-01-02T19:34:09.530Z,98.20
2018-01-02T19:36:38.611Z,98.30
2018-01-02T19:39:07.634Z,98.10
2018-01-02T19:41:35.902Z,98.10
2018-01-02T19:44:04.973Z,97.80
2018-01-02T19:46:33.995Z,98.10
2018-01-02T19:49:03.146Z,98.30
2018-01-02T19:51:31.408Z,98.30
2018-01-02T19:53:59.701Z,98.50
2018-01-02T19:56:27.998Z,98.50
2018-01-02T19:58:56.273Z,98.80
2018-01-02T20:01:24.523Z,99.20
2018-01-02T20:03:52.782Z,99.50
2018-01-02T20:06:21.038Z,99.80
2018-01-02T20:08:50.069Z,99.90
2018-01-02T20:11:18.323Z,99.90
2018-01-02T20:13:47.350Z,99.90
2018-01-02T20:16:15.611Z,99.90
2018-01-02T20:18:44.752Z,99.90
2018-01-02T20:21:13.006Z,99.90
2018-01-02T20:23:41.311Z,99.90
2018-01-02T20:26:09.633Z,99.90
2018-01-02T20:28:37.900Z,99.90
2018-01-02T20:31:07.689Z,99.90
2018-01-02T20:33:35.950Z,99.90
2018-01-02T20:36:04.198Z,99.90
2018-01-02T20:38:33.230Z,99.90
2018-01-02T20:41:01.499Z,99.90
2018-01-02T20:43:29.760Z,99.90
2018-01-02T20:45:58.776Z,99.90
2018-01-02T20:48:27.041Z,99.90
2018-01-02T20:50:56.147Z,99.90
2018-01-02T20:53:24.457Z,99.90
2018-01-02T20:55:52.730Z,99.90
2018-01-02T20:58:20.996Z,99.90
2018-01-02T21:00:49.290Z,99.90
2018-01-02T21:03:18.295Z,99.90
2018-01-02T21:05:46.562Z,99.90
2018-01-02T21:08:14.850Z,99.90
2018-01-02T21:10:43.113Z,99.90
2018-01-02T21:13:11.397Z,99.90
2018-01-02T21:15:39.657Z,99.90
2018-01-02T21:18:07.920Z,99.90
2018-01-02T21:20:36.933Z,99.90
2018-01-02T21:23:05.242Z,99.90
2018-01-02T21:25:33.555Z,99.90
2018-01-02T21:28:01.795Z,99.90
2018-01-02T21:30:30.047Z,99.90
2018-01-02T21:32:59.083Z,99.90
2018-01-02T21:35:27.334Z,99.90
2018-01-02T21:37:55.598Z,99.90
2018-01-02T21:40:23.885Z,99.90
2018-01-02T21:42:53.018Z,99.90
2018-01-02T21:45:21.304Z,99.90
2018-01-02T21:47:49.546Z,99.90
2018-01-02T21:50:17.857Z,99.90
2018-01-02T21:52:46.099Z,99.90
2018-01-02T21:55:15.157Z,99.90
2018-01-02T21:57:43.373Z,99.90
2018-01-02T22:00:12.414Z,99.90
2018-01-02T22:02:40.685Z,99.90
2018-01-02T22:05:08.950Z,99.90
2018-01-02T22:07:37.196Z,99.90
2018-01-02T22:10:05.455Z,99.90
2018-01-02T22:12:33.743Z,99.90
2018-01-02T22:15:01.995Z,99.90
2018-01-02T22:17:30.261Z,99.90
2018-01-02T22:19:58.525Z,99.90
2018-01-02T22:22:26.778Z,99.90
2018-01-02T22:24:55.874Z,99.90
2018-01-02T22:27:24.901Z,99.90
2018-01-02T22:29:53.179Z,99.90
2018-01-02T22:32:21.476Z,99.90
2018-01-02T22:34:49.750Z,99.90
2018-01-02T22:37:17.996Z,99.90
2018-01-02T22:39:47.027Z,99.90
2018-01-02T22:42:15.318Z,99.90
2018-01-02T22:44:43.581Z,99.90
2018-01-02T22:47:11.835Z,99.90
2018-01-02T22:49:40.865Z,99.90
2018-01-02T22:52:09.134Z,99.90
2018-01-02T22:54:37.415Z,99.90
2018-01-02T22:57:06.430Z,99.90
2018-01-02T22:59:34.711Z,99.90
2018-01-02T23:02:02.942Z,99.90
2018-01-02T23:04:31.990Z,99.90
2018-01-02T23:07:00.274Z,99.90
2018-01-02T23:09:28.528Z,99.90
2018-01-02T23:11:56.781Z,99.90
2018-01-02T23:14:25.046Z,99.90
2018-01-02T23:16:53.463Z,99.90
2018-01-02T23:19:21.778Z,99.90
2018-01-02T23:21:50.830Z,99.90
2018-01-02T23:24:19.880Z,99.90
2018-01-02T23:26:48.195Z,99.90
2018-01-02T23:29:16.442Z,99.90
2018-01-02T23:31:44.677Z,99.90
2018-01-02T23:34:13.713Z,99.90
2018-01-02T23:36:41.986Z,99.90
2018-01-02T23:39:10.249Z,99.90
2018-01-02T23:41:38.553Z,99.90
2018-01-02T23:44:06.814Z,99.90
2018-01-02T23:46:35.112Z,99.90
2018-01-02T23:49:03.395Z,99.90
2018-01-02T23:51:31.641Z,99.90
2018-01-02T23:54:01.098Z,99.90
2018-01-02T23:56:29.405Z,99.90
2018-01-02T23:58:57.706Z,99.90
